sensor_id;sensor_type;location;lat;lon;timestamp;P1;durP1;ratioP1;P2;durP2;ratioP2
71916;SDS011;59793;46.506;6.674;2023-09-08T00:00:42;6.53;;;5.20;;
71916;SDS011;59793;46.506;6.674;2023-09-08T00:03:08;10.50;;;5.50;;
71916;SDS011;59793;46.506;6.674;2023-09-08T00:05:33;10.33;;;5.03;;
71916;SDS011;59793;46.506;6.674;2023-09-08T00:07:58;8.20;;;5.60;;
71916;SDS011;59793;46.506;6.674;2023-09-08T00:10:24;8.47;;;5.53;;
71916;SDS011;59793;46.506;6.674;2023-09-08T00:12:49;7.77;;;5.70;;
71916;SDS011;59793;46.506;6.674;2023-09-08T00:15:14;7.67;;;5.30;;
71916;SDS011;59793;46.506;6.674;2023-09-08T00:17:40;8.93;;;5.33;;
71916;SDS011;59793;46.506;6.674;2023-09-08T00:20:06;7.03;;;6.15;;
71916;SDS011;59793;46.506;6.674;2023-09-08T00:22:35;10.10;;;6.03;;
71916;SDS011;59793;46.506;6.674;2023-09-08T00:25:03;8.40;;;5.65;;
71916;SDS011;59793;46.506;6.674;2023-09-08T00:27:29;10.20;;;5.70;;
71916;SDS011;59793;46.506;6.674;2023-09-08T00:29:56;8.48;;;5.60;;
71916;SDS011;59793;46.506;6.674;2023-09-08T00:32:21;12.43;;;5.47;;
71916;SDS011;59793;46.506;6.674;2023-09-08T00:34:46;6.77;;;4.93;;
71916;SDS011;59793;46.506;6.674;2023-09-08T00:37:12;10.73;;;6.47;;
71916;SDS011;59793;46.506;6.674;2023-09-08T00:39:37;7.70;;;5.83;;
71916;SDS011;59793;46.506;6.674;2023-09-08T00:42:02;9.57;;;6.13;;
71916;SDS011;59793;46.506;6.674;2023-09-08T00:44:28;10.23;;;5.67;;
71916;SDS011;59793;46.506;6.674;2023-09-08T00:46:53;9.53;;;6.37;;
71916;SDS011;59793;46.506;6.674;2023-09-08T00:49:19;6.67;;;5.73;;
71916;SDS011;59793;46.506;6.674;2023-09-08T00:51:45;7.38;;;5.53;;
71916;SDS011;59793;46.506;6.674;2023-09-08T00:54:11;7.75;;;5.88;;
71916;SDS011;59793;46.506;6.674;2023-09-08T00:56:36;9.37;;;5.90;;
71916;SDS011;59793;46.506;6.674;2023-09-08T00:59:02;8.07;;;6.20;;
71916;SDS011;59793;46.506;6.674;2023-09-08T01:01:29;7.43;;;5.78;;
71916;SDS011;59793;46.506;6.674;2023-09-08T01:03:55;8.40;;;5.50;;
71916;SDS011;59793;46.506;6.674;2023-09-08T01:09:07;7.50;;;5.32;;
71916;SDS011;59793;46.506;6.674;2023-09-08T01:11:33;8.90;;;6.20;;
71916;SDS011;59793;46.506;6.674;2023-09-08T01:13:58;9.70;;;6.30;;
71916;SDS011;59793;46.506;6.674;2023-09-08T01:16:24;10.37;;;5.83;;
71916;SDS011;59793;46.506;6.674;2023-09-08T01:18:49;10.07;;;6.13;;
71916;SDS011;59793;46.506;6.674;2023-09-08T01:26:42;8.50;;;5.67;;
71916;SDS011;59793;46.506;6.674;2023-09-08T01:29:09;11.40;;;6.20;;
71916;SDS011;59793;46.506;6.674;2023-09-08T01:31:35;7.10;;;5.85;;
71916;SDS011;59793;46.506;6.674;2023-09-08T01:34:02;7.05;;;5.70;;
71916;SDS011;59793;46.506;6.674;2023-09-08T01:36:31;7.68;;;5.88;;
71916;SDS011;59793;46.506;6.674;2023-09-08T01:38:58;7.90;;;5.85;;
71916;SDS011;59793;46.506;6.674;2023-09-08T01:41:24;8.17;;;6.00;;
71916;SDS011;59793;46.506;6.674;2023-09-08T01:43:49;10.97;;;6.30;;
71916;SDS011;59793;46.506;6.674;2023-09-08T01:46:14;9.83;;;6.10;;
71916;SDS011;59793;46.506;6.674;2023-09-08T01:48:39;9.27;;;6.13;;
71916;SDS011;59793;46.506;6.674;2023-09-08T01:51:05;8.30;;;5.93;;
71916;SDS011;59793;46.506;6.674;2023-09-08T01:53:30;7.90;;;6.37;;
71916;SDS011;59793;46.506;6.674;2023-09-08T01:55:55;9.63;;;6.70;;
71916;SDS011;59793;46.506;6.674;2023-09-08T01:58:21;7.05;;;5.85;;
71916;SDS011;59793;46.506;6.674;2023-09-08T02:00:50;8.80;;;5.60;;
71916;SDS011;59793;46.506;6.674;2023-09-08T02:03:16;9.25;;;6.40;;
71916;SDS011;59793;46.506;6.674;2023-09-08T02:05:41;8.33;;;6.37;;
71916;SDS011;59793;46.506;6.674;2023-09-08T02:08:07;10.43;;;6.13;;
71916;SDS011;59793;46.506;6.674;2023-09-08T02:10:32;7.43;;;5.87;;
71916;SDS011;59793;46.506;6.674;2023-09-08T02:12:57;8.63;;;6.47;;
71916;SDS011;59793;46.506;6.674;2023-09-08T02:15:23;8.60;;;6.17;;
71916;SDS011;59793;46.506;6.674;2023-09-08T02:17:57;8.27;;;6.17;;
71916;SDS011;59793;46.506;6.674;2023-09-08T02:20:22;9.45;;;6.65;;
71916;SDS011;59793;46.506;6.674;2023-09-08T02:22:49;7.30;;;6.13;;
71916;SDS011;59793;46.506;6.674;2023-09-08T02:25:18;8.60;;;6.90;;
71916;SDS011;59793;46.506;6.674;2023-09-08T02:27:43;8.77;;;6.87;;
71916;SDS011;59793;46.506;6.674;2023-09-08T02:30:09;7.93;;;6.30;;
71916;SDS011;59793;46.506;6.674;2023-09-08T02:32:34;6.47;;;5.82;;
71916;SDS011;59793;46.506;6.674;2023-09-08T02:35:00;7.00;;;6.27;;
71916;SDS011;59793;46.506;6.674;2023-09-08T02:37:25;10.00;;;6.83;;
71916;SDS011;59793;46.506;6.674;2023-09-08T02:39:50;8.20;;;5.67;;
71916;SDS011;59793;46.506;6.674;2023-09-08T02:42:15;6.77;;;5.83;;
71916;SDS011;59793;46.506;6.674;2023-09-08T02:44:41;11.77;;;6.40;;
71916;SDS011;59793;46.506;6.674;2023-09-08T02:47:06;6.93;;;6.20;;
71916;SDS011;59793;46.506;6.674;2023-09-08T02:49:32;11.97;;;6.53;;
71916;SDS011;59793;46.506;6.674;2023-09-08T02:51:57;6.57;;;5.90;;
71916;SDS011;59793;46.506;6.674;2023-09-08T02:54:22;8.10;;;6.60;;
71916;SDS011;59793;46.506;6.674;2023-09-08T02:56:48;7.70;;;6.33;;
71916;SDS011;59793;46.506;6.674;2023-09-08T02:59:13;8.13;;;6.50;;
71916;SDS011;59793;46.506;6.674;2023-09-08T03:01:39;11.43;;;6.73;;
71916;SDS011;59793;46.506;6.674;2023-09-08T03:04:04;7.57;;;5.87;;
71916;SDS011;59793;46.506;6.674;2023-09-08T03:06:30;7.27;;;6.40;;
71916;SDS011;59793;46.506;6.674;2023-09-08T03:08:55;8.80;;;5.37;;
71916;SDS011;59793;46.506;6.674;2023-09-08T03:11:20;8.43;;;6.67;;
71916;SDS011;59793;46.506;6.674;2023-09-08T03:13:46;7.00;;;6.13;;
71916;SDS011;59793;46.506;6.674;2023-09-08T03:16:11;9.57;;;6.30;;
71916;SDS011;59793;46.506;6.674;2023-09-08T03:18:37;7.97;;;6.07;;
71916;SDS011;59793;46.506;6.674;2023-09-08T03:21:03;8.00;;;6.82;;
71916;SDS011;59793;46.506;6.674;2023-09-08T03:23:35;8.45;;;5.93;;
71916;SDS011;59793;46.506;6.674;2023-09-08T03:26:04;7.30;;;6.55;;
71916;SDS011;59793;46.506;6.674;2023-09-08T03:28:29;11.57;;;6.83;;
71916;SDS011;59793;46.506;6.674;2023-09-08T03:33:21;10.17;;;6.80;;
71916;SDS011;59793;46.506;6.674;2023-09-08T03:35:46;11.63;;;7.23;;
71916;SDS011;59793;46.506;6.674;2023-09-08T03:38:11;10.20;;;7.07;;
71916;SDS011;59793;46.506;6.674;2023-09-08T03:40:37;9.90;;;7.47;;
71916;SDS011;59793;46.506;6.674;2023-09-08T03:43:03;8.67;;;6.90;;
71916;SDS011;59793;46.506;6.674;2023-09-08T03:45:28;10.75;;;6.20;;
71916;SDS011;59793;46.506;6.674;2023-09-08T03:47:54;10.60;;;6.87;;
71916;SDS011;59793;46.506;6.674;2023-09-08T03:50:19;10.20;;;6.80;;
71916;SDS011;59793;46.506;6.674;2023-09-08T03:52:44;6.80;;;6.10;;
71916;SDS011;59793;46.506;6.674;2023-09-08T03:55:11;8.83;;;6.50;;
71916;SDS011;59793;46.506;6.674;2023-09-08T03:57:36;7.57;;;6.53;;
71916;SDS011;59793;46.506;6.674;2023-09-08T04:00:02;7.10;;;5.83;;
71916;SDS011;59793;46.506;6.674;2023-09-08T04:02:29;7.60;;;6.43;;
71916;SDS011;59793;46.506;6.674;2023-09-08T04:04:55;7.20;;;5.93;;
71916;SDS011;59793;46.506;6.674;2023-09-08T04:07:20;7.90;;;6.93;;
71916;SDS011;59793;46.506;6.674;2023-09-08T04:09:45;7.60;;;6.63;;
71916;SDS011;59793;46.506;6.674;2023-09-08T04:12:11;7.27;;;6.57;;
71916;SDS011;59793;46.506;6.674;2023-09-08T04:14:36;8.10;;;6.50;;
71916;SDS011;59793;46.506;6.674;2023-09-08T04:17:02;9.47;;;7.57;;
71916;SDS011;59793;46.506;6.674;2023-09-08T04:19:27;8.13;;;6.57;;
71916;SDS011;59793;46.506;6.674;2023-09-08T04:21:53;8.20;;;6.57;;
71916;SDS011;59793;46.506;6.674;2023-09-08T04:24:18;8.40;;;6.47;;
71916;SDS011;59793;46.506;6.674;2023-09-08T04:26:45;10.60;;;6.47;;
71916;SDS011;59793;46.506;6.674;2023-09-08T04:29:10;12.93;;;7.27;;
71916;SDS011;59793;46.506;6.674;2023-09-08T04:31:36;9.00;;;6.93;;
71916;SDS011;59793;46.506;6.674;2023-09-08T04:34:01;9.33;;;7.03;;
71916;SDS011;59793;46.506;6.674;2023-09-08T04:36:29;10.50;;;7.15;;
71916;SDS011;59793;46.506;6.674;2023-09-08T04:38:55;9.45;;;6.95;;
71916;SDS011;59793;46.506;6.674;2023-09-08T04:41:21;10.00;;;7.47;;
71916;SDS011;59793;46.506;6.674;2023-09-08T04:43:46;10.10;;;6.73;;
71916;SDS011;59793;46.506;6.674;2023-09-08T04:46:12;9.80;;;7.13;;
71916;SDS011;59793;46.506;6.674;2023-09-08T04:48:39;11.93;;;6.55;;
71916;SDS011;59793;46.506;6.674;2023-09-08T04:51:04;10.33;;;6.80;;
71916;SDS011;59793;46.506;6.674;2023-09-08T04:53:30;7.70;;;6.63;;
71916;SDS011;59793;46.506;6.674;2023-09-08T04:55:55;9.03;;;6.93;;
71916;SDS011;59793;46.506;6.674;2023-09-08T04:58:20;10.10;;;6.90;;
71916;SDS011;59793;46.506;6.674;2023-09-08T05:00:46;7.93;;;6.97;;
71916;SDS011;59793;46.506;6.674;2023-09-08T05:03:11;10.53;;;7.53;;
71916;SDS011;59793;46.506;6.674;2023-09-08T05:05:37;8.57;;;7.30;;
71916;SDS011;59793;46.506;6.674;2023-09-08T05:08:04;7.80;;;6.38;;
71916;SDS011;59793;46.506;6.674;2023-09-08T05:10:29;7.70;;;6.30;;
71916;SDS011;59793;46.506;6.674;2023-09-08T05:12:55;9.27;;;7.70;;
71916;SDS011;59793;46.506;6.674;2023-09-08T05:15:20;8.35;;;6.18;;
71916;SDS011;59793;46.506;6.674;2023-09-08T05:17:47;7.40;;;5.93;;
71916;SDS011;59793;46.506;6.674;2023-09-08T05:20:12;10.40;;;6.38;;
71916;SDS011;59793;46.506;6.674;2023-09-08T05:22:38;9.80;;;6.67;;
71916;SDS011;59793;46.506;6.674;2023-09-08T05:25:04;7.70;;;6.53;;
71916;SDS011;59793;46.506;6.674;2023-09-08T05:27:31;8.43;;;6.65;;
71916;SDS011;59793;46.506;6.674;2023-09-08T05:30:01;7.97;;;6.57;;
71916;SDS011;59793;46.506;6.674;2023-09-08T05:32:28;14.50;;;7.38;;
71916;SDS011;59793;46.506;6.674;2023-09-08T05:34:53;8.67;;;6.80;;
71916;SDS011;59793;46.506;6.674;2023-09-08T05:37:19;10.33;;;6.60;;
71916;SDS011;59793;46.506;6.674;2023-09-08T05:39:44;7.40;;;6.47;;
71916;SDS011;59793;46.506;6.674;2023-09-08T05:42:11;10.50;;;6.33;;
71916;SDS011;59793;46.506;6.674;2023-09-08T05:44:36;7.93;;;6.72;;
71916;SDS011;59793;46.506;6.674;2023-09-08T05:47:04;8.18;;;7.07;;
71916;SDS011;59793;46.506;6.674;2023-09-08T06:20:35;12.52;;;6.43;;
71916;SDS011;59793;46.506;6.674;2023-09-08T06:23:00;13.00;;;7.47;;
71916;SDS011;59793;46.506;6.674;2023-09-08T06:25:27;10.27;;;6.45;;
71916;SDS011;59793;46.506;6.674;2023-09-08T06:27:55;9.65;;;7.28;;
71916;SDS011;59793;46.506;6.674;2023-09-08T06:30:20;8.17;;;6.07;;
71916;SDS011;59793;46.506;6.674;2023-09-08T06:32:46;13.43;;;7.13;;
71916;SDS011;59793;46.506;6.674;2023-09-08T06:35:18;9.70;;;6.15;;
71916;SDS011;59793;46.506;6.674;2023-09-08T06:37:43;8.27;;;6.67;;
71916;SDS011;59793;46.506;6.674;2023-09-08T06:40:09;9.13;;;6.40;;
71916;SDS011;59793;46.506;6.674;2023-09-08T06:42:34;8.37;;;6.77;;
71916;SDS011;59793;46.506;6.674;2023-09-08T06:45:00;13.33;;;6.17;;
71916;SDS011;59793;46.506;6.674;2023-09-08T06:47:25;8.50;;;5.93;;
71916;SDS011;59793;46.506;6.674;2023-09-08T06:49:50;7.80;;;6.13;;
71916;SDS011;59793;46.506;6.674;2023-09-08T06:52:16;12.50;;;6.10;;
71916;SDS011;59793;46.506;6.674;2023-09-08T06:57:07;10.00;;;6.65;;
71916;SDS011;59793;46.506;6.674;2023-09-08T06:59:33;8.50;;;6.33;;
71916;SDS011;59793;46.506;6.674;2023-09-08T07:01:58;12.50;;;6.23;;
71916;SDS011;59793;46.506;6.674;2023-09-08T07:04:27;14.13;;;7.33;;
71916;SDS011;59793;46.506;6.674;2023-09-08T07:06:54;14.98;;;6.80;;
71916;SDS011;59793;46.506;6.674;2023-09-08T07:09:35;7.25;;;6.35;;
71916;SDS011;59793;46.506;6.674;2023-09-08T07:12:06;9.77;;;6.38;;
71916;SDS011;59793;46.506;6.674;2023-09-08T07:14:48;9.95;;;7.03;;
71916;SDS011;59793;46.506;6.674;2023-09-08T07:17:13;14.00;;;7.50;;
71916;SDS011;59793;46.506;6.674;2023-09-08T07:19:39;9.90;;;7.53;;
71916;SDS011;59793;46.506;6.674;2023-09-08T07:22:04;13.70;;;7.30;;
71916;SDS011;59793;46.506;6.674;2023-09-08T07:24:30;7.15;;;6.45;;
71916;SDS011;59793;46.506;6.674;2023-09-08T07:26:56;11.40;;;6.60;;
71916;SDS011;59793;46.506;6.674;2023-09-08T07:29:21;10.97;;;6.77;;
71916;SDS011;59793;46.506;6.674;2023-09-08T07:31:47;13.53;;;8.20;;
71916;SDS011;59793;46.506;6.674;2023-09-08T07:34:12;8.83;;;7.47;;
71916;SDS011;59793;46.506;6.674;2023-09-08T07:36:37;12.17;;;7.57;;
71916;SDS011;59793;46.506;6.674;2023-09-08T07:39:03;13.83;;;8.40;;
71916;SDS011;59793;46.506;6.674;2023-09-08T07:41:28;18.50;;;8.13;;
71916;SDS011;59793;46.506;6.674;2023-09-08T07:43:54;12.00;;;7.83;;
71916;SDS011;59793;46.506;6.674;2023-09-08T07:46:19;10.97;;;8.13;;
71916;SDS011;59793;46.506;6.674;2023-09-08T07:48:45;8.45;;;7.15;;
71916;SDS011;59793;46.506;6.674;2023-09-08T07:51:10;14.00;;;8.27;;
71916;SDS011;59793;46.506;6.674;2023-09-08T07:53:36;10.35;;;8.40;;
71916;SDS011;59793;46.506;6.674;2023-09-08T07:56:02;12.88;;;8.70;;
71916;SDS011;59793;46.506;6.674;2023-09-08T07:58:29;10.18;;;7.85;;
71916;SDS011;59793;46.506;6.674;2023-09-08T08:00:55;13.43;;;8.65;;
71916;SDS011;59793;46.506;6.674;2023-09-08T08:03:20;12.40;;;8.73;;
71916;SDS011;59793;46.506;6.674;2023-09-08T08:05:46;13.67;;;8.30;;
71916;SDS011;59793;46.506;6.674;2023-09-08T08:08:12;11.50;;;8.10;;
71916;SDS011;59793;46.506;6.674;2023-09-08T08:10:37;15.00;;;8.77;;
71916;SDS011;59793;46.506;6.674;2023-09-08T08:13:03;11.40;;;8.60;;
71916;SDS011;59793;46.506;6.674;2023-09-08T08:15:39;17.25;;;8.73;;
71916;SDS011;59793;46.506;6.674;2023-09-08T08:18:25;9.93;;;7.88;;
71916;SDS011;59793;46.506;6.674;2023-09-08T08:20:51;12.40;;;7.17;;
71916;SDS011;59793;46.506;6.674;2023-09-08T08:23:17;15.80;;;8.15;;
71916;SDS011;59793;46.506;6.674;2023-09-08T08:25:44;11.65;;;7.18;;
71916;SDS011;59793;46.506;6.674;2023-09-08T08:28:09;8.52;;;6.90;;
71916;SDS011;59793;46.506;6.674;2023-09-08T08:30:36;17.23;;;7.78;;
71916;SDS011;59793;46.506;6.674;2023-09-08T08:33:02;10.55;;;7.43;;
71916;SDS011;59793;46.506;6.674;2023-09-08T08:35:29;10.80;;;7.47;;
71916;SDS011;59793;46.506;6.674;2023-09-08T08:38:00;9.75;;;7.13;;
71916;SDS011;59793;46.506;6.674;2023-09-08T08:40:25;10.68;;;7.40;;
71916;SDS011;59793;46.506;6.674;2023-09-08T08:42:57;12.40;;;8.38;;
71916;SDS011;59793;46.506;6.674;2023-09-08T08:45:30;8.60;;;7.43;;
71916;SDS011;59793;46.506;6.674;2023-09-08T08:47:56;10.55;;;8.07;;
71916;SDS011;59793;46.506;6.674;2023-09-08T08:50:23;10.48;;;8.02;;
71916;SDS011;59793;46.506;6.674;2023-09-08T08:55:15;9.50;;;7.90;;
71916;SDS011;59793;46.506;6.674;2023-09-08T08:57:49;9.77;;;7.25;;
71916;SDS011;59793;46.506;6.674;2023-09-08T10:14:24;12.00;;;7.90;;
71916;SDS011;59793;46.506;6.674;2023-09-08T10:19:51;9.95;;;7.10;;
71916;SDS011;59793;46.506;6.674;2023-09-08T10:22:20;8.65;;;7.75;;
71916;SDS011;59793;46.506;6.674;2023-09-08T10:24:53;13.25;;;8.27;;
71916;SDS011;59793;46.506;6.674;2023-09-08T10:27:25;12.38;;;7.72;;
71916;SDS011;59793;46.506;6.674;2023-09-08T10:29:58;10.48;;;7.90;;
71916;SDS011;59793;46.506;6.674;2023-09-08T10:32:26;10.93;;;7.13;;
71916;SDS011;59793;46.506;6.674;2023-09-08T10:35:08;9.55;;;7.25;;
71916;SDS011;59793;46.506;6.674;2023-09-08T10:37:35;9.63;;;7.45;;
71916;SDS011;59793;46.506;6.674;2023-09-08T10:42:46;10.93;;;7.55;;
71916;SDS011;59793;46.506;6.674;2023-09-08T10:45:17;13.90;;;7.38;;
71916;SDS011;59793;46.506;6.674;2023-09-08T10:50:18;7.63;;;6.70;;
71916;SDS011;59793;46.506;6.674;2023-09-08T10:55:12;13.38;;;8.38;;
71916;SDS011;59793;46.506;6.674;2023-09-08T10:57:44;13.88;;;7.80;;
71916;SDS011;59793;46.506;6.674;2023-09-08T11:00:11;12.57;;;7.20;;
71916;SDS011;59793;46.506;6.674;2023-09-08T11:02:51;13.35;;;7.60;;
71916;SDS011;59793;46.506;6.674;2023-09-08T11:05:19;9.23;;;7.35;;
71916;SDS011;59793;46.506;6.674;2023-09-08T11:07:49;12.15;;;7.95;;
71916;SDS011;59793;46.506;6.674;2023-09-08T11:10:17;10.13;;;6.53;;
71916;SDS011;59793;46.506;6.674;2023-09-08T11:12:46;15.95;;;7.43;;
71916;SDS011;59793;46.506;6.674;2023-09-08T11:15:13;13.02;;;8.00;;
71916;SDS011;59793;46.506;6.674;2023-09-08T11:17:39;12.32;;;7.65;;
71916;SDS011;59793;46.506;6.674;2023-09-08T11:20:08;9.18;;;7.00;;
71916;SDS011;59793;46.506;6.674;2023-09-08T11:22:38;15.43;;;7.78;;
71916;SDS011;59793;46.506;6.674;2023-09-08T11:25:06;7.72;;;6.93;;
71916;SDS011;59793;46.506;6.674;2023-09-08T11:27:35;8.35;;;7.45;;
71916;SDS011;59793;46.506;6.674;2023-09-08T11:30:01;9.90;;;6.35;;
71916;SDS011;59793;46.506;6.674;2023-09-08T11:32:36;8.75;;;5.88;;
71916;SDS011;59793;46.506;6.674;2023-09-08T11:35:06;8.70;;;6.13;;
71916;SDS011;59793;46.506;6.674;2023-09-08T11:37:58;8.70;;;5.63;;
71916;SDS011;59793;46.506;6.674;2023-09-08T11:40:27;8.27;;;6.43;;
71916;SDS011;59793;46.506;6.674;2023-09-08T11:42:53;9.10;;;7.10;;
71916;SDS011;59793;46.506;6.674;2023-09-08T11:45:21;10.05;;;6.32;;
71916;SDS011;59793;46.506;6.674;2023-09-08T11:50:55;7.70;;;5.82;;
71916;SDS011;59793;46.506;6.674;2023-09-08T11:53:21;7.70;;;6.10;;
71916;SDS011;59793;46.506;6.674;2023-09-08T11:55:49;6.32;;;5.43;;
71916;SDS011;59793;46.506;6.674;2023-09-08T12:00:41;9.30;;;7.20;;
71916;SDS011;59793;46.506;6.674;2023-09-08T12:03:13;9.93;;;5.55;;
71916;SDS011;59793;46.506;6.674;2023-09-08T12:05:44;6.65;;;5.30;;
71916;SDS011;59793;46.506;6.674;2023-09-08T12:11:38;6.72;;;5.82;;
71916;SDS011;59793;46.506;6.674;2023-09-08T12:14:08;6.95;;;5.90;;
71916;SDS011;59793;46.506;6.674;2023-09-08T12:19:55;7.15;;;5.50;;
71916;SDS011;59793;46.506;6.674;2023-09-08T12:22:47;9.15;;;4.68;;
71916;SDS011;59793;46.506;6.674;2023-09-08T12:25:14;6.35;;;5.20;;
71916;SDS011;59793;46.506;6.674;2023-09-08T12:27:49;12.82;;;5.88;;
71916;SDS011;59793;46.506;6.674;2023-09-08T12:30:18;6.90;;;5.60;;
71916;SDS011;59793;46.506;6.674;2023-09-08T12:32:45;6.47;;;5.53;;
71916;SDS011;59793;46.506;6.674;2023-09-08T12:35:18;10.32;;;5.93;;
71916;SDS011;59793;46.506;6.674;2023-09-08T12:38:00;8.43;;;5.75;;
71916;SDS011;59793;46.506;6.674;2023-09-08T12:52:33;9.63;;;5.07;;
71916;SDS011;59793;46.506;6.674;2023-09-08T12:54:59;9.82;;;4.78;;
71916;SDS011;59793;46.506;6.674;2023-09-08T12:57:26;8.07;;;4.93;;
71916;SDS011;59793;46.506;6.674;2023-09-08T12:59:55;7.68;;;4.18;;
71916;SDS011;59793;46.506;6.674;2023-09-08T13:02:22;9.40;;;5.25;;
71916;SDS011;59793;46.506;6.674;2023-09-08T13:04:59;7.35;;;4.22;;
71916;SDS011;59793;46.506;6.674;2023-09-08T13:07:45;14.00;;;5.63;;
71916;SDS011;59793;46.506;6.674;2023-09-08T13:10:11;9.70;;;4.70;;
71916;SDS011;59793;46.506;6.674;2023-09-08T13:35:51;13.55;;;6.50;;
71916;SDS011;59793;46.506;6.674;2023-09-08T13:40:43;14.27;;;6.55;;
71916;SDS011;59793;46.506;6.674;2023-09-08T13:43:09;9.52;;;5.85;;
71916;SDS011;59793;46.506;6.674;2023-09-08T13:45:36;11.02;;;6.60;;
71916;SDS011;59793;46.506;6.674;2023-09-08T13:48:14;11.60;;;5.30;;
71916;SDS011;59793;46.506;6.674;2023-09-08T13:50:41;9.80;;;6.15;;
71916;SDS011;59793;46.506;6.674;2023-09-08T13:53:11;6.40;;;5.38;;
71916;SDS011;59793;46.506;6.674;2023-09-08T13:55:53;8.45;;;5.43;;
71916;SDS011;59793;46.506;6.674;2023-09-08T14:00:44;8.77;;;5.60;;
71916;SDS011;59793;46.506;6.674;2023-09-08T14:05:35;7.15;;;5.65;;
71916;SDS011;59793;46.506;6.674;2023-09-08T14:08:09;10.30;;;4.88;;
71916;SDS011;59793;46.506;6.674;2023-09-08T14:10:37;10.68;;;5.60;;
71916;SDS011;59793;46.506;6.674;2023-09-08T14:13:04;10.07;;;5.50;;
71916;SDS011;59793;46.506;6.674;2023-09-08T14:15:30;8.88;;;5.40;;
71916;SDS011;59793;46.506;6.674;2023-09-08T14:20:24;7.68;;;4.75;;
71916;SDS011;59793;46.506;6.674;2023-09-08T14:22:56;6.15;;;4.63;;
71916;SDS011;59793;46.506;6.674;2023-09-08T14:25:23;7.90;;;6.18;;
71916;SDS011;59793;46.506;6.674;2023-09-08T14:27:50;7.57;;;5.18;;
71916;SDS011;59793;46.506;6.674;2023-09-08T14:35:26;11.15;;;6.03;;
71916;SDS011;59793;46.506;6.674;2023-09-08T14:37:56;7.95;;;5.40;;
71916;SDS011;59793;46.506;6.674;2023-09-08T14:40:25;6.13;;;4.82;;
71916;SDS011;59793;46.506;6.674;2023-09-08T14:54:20;7.05;;;4.78;;
71916;SDS011;59793;46.506;6.674;2023-09-08T14:56:50;6.40;;;4.75;;
71916;SDS011;59793;46.506;6.674;2023-09-08T14:59:27;10.48;;;5.28;;
71916;SDS011;59793;46.506;6.674;2023-09-08T15:01:58;13.98;;;5.40;;
71916;SDS011;59793;46.506;6.674;2023-09-08T15:04:25;10.80;;;5.63;;
71916;SDS011;59793;46.506;6.674;2023-09-08T15:07:03;9.20;;;5.13;;
71916;SDS011;59793;46.506;6.674;2023-09-08T15:30:26;7.90;;;5.05;;
71916;SDS011;59793;46.506;6.674;2023-09-08T15:38:30;6.60;;;4.93;;
71916;SDS011;59793;46.506;6.674;2023-09-08T15:44:24;10.23;;;5.32;;
71916;SDS011;59793;46.506;6.674;2023-09-08T15:46:51;7.25;;;5.13;;
71916;SDS011;59793;46.506;6.674;2023-09-08T15:49:46;7.57;;;4.95;;
71916;SDS011;59793;46.506;6.674;2023-09-08T15:52:37;6.55;;;4.72;;
71916;SDS011;59793;46.506;6.674;2023-09-08T15:55:37;9.95;;;5.18;;
71916;SDS011;59793;46.506;6.674;2023-09-08T15:58:38;6.43;;;4.75;;
71916;SDS011;59793;46.506;6.674;2023-09-08T16:04:38;4.93;;;4.38;;
71916;SDS011;59793;46.506;6.674;2023-09-08T16:07:20;8.82;;;4.80;;
71916;SDS011;59793;46.506;6.674;2023-09-08T16:09:49;10.30;;;4.78;;
71916;SDS011;59793;46.506;6.674;2023-09-08T16:12:15;5.85;;;4.38;;
71916;SDS011;59793;46.506;6.674;2023-09-08T16:15:22;11.88;;;5.00;;
71916;SDS011;59793;46.506;6.674;2023-09-08T16:17:50;9.75;;;4.53;;
71916;SDS011;59793;46.506;6.674;2023-09-08T16:20:21;5.28;;;3.97;;
71916;SDS011;59793;46.506;6.674;2023-09-08T16:23:05;6.82;;;4.88;;
71916;SDS011;59793;46.506;6.674;2023-09-08T16:31:24;12.77;;;5.53;;
71916;SDS011;59793;46.506;6.674;2023-09-08T16:33:58;7.20;;;4.80;;
71916;SDS011;59793;46.506;6.674;2023-09-08T16:36:33;9.48;;;5.25;;
71916;SDS011;59793;46.506;6.674;2023-09-08T16:39:14;9.80;;;5.05;;
71916;SDS011;59793;46.506;6.674;2023-09-08T16:41:43;6.88;;;4.70;;
71916;SDS011;59793;46.506;6.674;2023-09-08T16:44:10;6.60;;;4.47;;
71916;SDS011;59793;46.506;6.674;2023-09-08T16:49:17;6.03;;;4.97;;
71916;SDS011;59793;46.506;6.674;2023-09-08T16:51:49;7.72;;;4.75;;
71916;SDS011;59793;46.506;6.674;2023-09-08T16:54:19;5.63;;;4.28;;
71916;SDS011;59793;46.506;6.674;2023-09-08T16:57:12;7.53;;;4.25;;
71916;SDS011;59793;46.506;6.674;2023-09-08T16:59:53;7.30;;;4.57;;
71916;SDS011;59793;46.506;6.674;2023-09-08T17:02:45;7.15;;;4.57;;
71916;SDS011;59793;46.506;6.674;2023-09-08T17:05:22;6.80;;;3.63;;
71916;SDS011;59793;46.506;6.674;2023-09-08T17:08:12;6.72;;;4.50;;
71916;SDS011;59793;46.506;6.674;2023-09-08T17:11:31;17.15;;;5.10;;
71916;SDS011;59793;46.506;6.674;2023-09-08T17:14:40;10.90;;;5.30;;
71916;SDS011;59793;46.506;6.674;2023-09-08T17:17:29;16.60;;;6.75;;
71916;SDS011;59793;46.506;6.674;2023-09-08T17:31:27;6.82;;;4.88;;
71916;SDS011;59793;46.506;6.674;2023-09-08T17:33:58;6.53;;;5.57;;
71916;SDS011;59793;46.506;6.674;2023-09-08T17:36:53;6.88;;;5.22;;
71916;SDS011;59793;46.506;6.674;2023-09-08T17:39:28;8.90;;;5.18;;
71916;SDS011;59793;46.506;6.674;2023-09-08T17:42:12;8.27;;;5.20;;
71916;SDS011;59793;46.506;6.674;2023-09-08T17:58:27;6.40;;;5.70;;
71916;SDS011;59793;46.506;6.674;2023-09-08T18:00:55;11.52;;;5.38;;
71916;SDS011;59793;46.506;6.674;2023-09-08T18:03:49;7.28;;;5.22;;
71916;SDS011;59793;46.506;6.674;2023-09-08T18:06:21;9.00;;;5.93;;
71916;SDS011;59793;46.506;6.674;2023-09-08T18:29:56;9.13;;;7.18;;
71916;SDS011;59793;46.506;6.674;2023-09-08T18:32:32;12.95;;;6.38;;
71916;SDS011;59793;46.506;6.674;2023-09-08T18:35:00;8.98;;;6.75;;
71916;SDS011;59793;46.506;6.674;2023-09-08T18:37:47;9.20;;;6.05;;
71916;SDS011;59793;46.506;6.674;2023-09-08T18:40:15;13.20;;;7.20;;
71916;SDS011;59793;46.506;6.674;2023-09-08T18:42:41;10.82;;;7.55;;
71916;SDS011;59793;46.506;6.674;2023-09-08T18:45:09;9.57;;;7.18;;
71916;SDS011;59793;46.506;6.674;2023-09-08T18:47:38;10.05;;;6.20;;
71916;SDS011;59793;46.506;6.674;2023-09-08T18:50:07;8.00;;;5.72;;
71916;SDS011;59793;46.506;6.674;2023-09-08T18:52:38;7.50;;;5.40;;
71916;SDS011;59793;46.506;6.674;2023-09-08T18:57:31;9.93;;;5.15;;
71916;SDS011;59793;46.506;6.674;2023-09-08T19:00:26;10.20;;;5.30;;
71916;SDS011;59793;46.506;6.674;2023-09-08T19:06:51;7.35;;;5.07;;
71916;SDS011;59793;46.506;6.674;2023-09-08T19:09:39;9.30;;;5.07;;
71916;SDS011;59793;46.506;6.674;2023-09-08T19:12:06;9.18;;;4.90;;
71916;SDS011;59793;46.506;6.674;2023-09-08T19:15:16;6.55;;;4.88;;
71916;SDS011;59793;46.506;6.674;2023-09-08T19:17:54;6.07;;;4.47;;
71916;SDS011;59793;46.506;6.674;2023-09-08T19:35:13;9.25;;;5.03;;
71916;SDS011;59793;46.506;6.674;2023-09-08T20:42:57;10.15;;;5.07;;
71916;SDS011;59793;46.506;6.674;2023-09-08T20:45:24;6.15;;;4.57;;
71916;SDS011;59793;46.506;6.674;2023-09-08T20:47:50;8.88;;;4.72;;
71916;SDS011;59793;46.506;6.674;2023-09-08T20:50:19;5.93;;;4.38;;
71916;SDS011;59793;46.506;6.674;2023-09-08T20:52:47;12.57;;;4.88;;
71916;SDS011;59793;46.506;6.674;2023-09-08T20:55:14;7.77;;;4.50;;
71916;SDS011;59793;46.506;6.674;2023-09-08T20:57:41;7.75;;;4.53;;
71916;SDS011;59793;46.506;6.674;2023-09-08T21:00:07;7.88;;;5.18;;
71916;SDS011;59793;46.506;6.674;2023-09-08T21:02:34;8.43;;;4.65;;
71916;SDS011;59793;46.506;6.674;2023-09-08T21:05:12;9.55;;;4.82;;
71916;SDS011;59793;46.506;6.674;2023-09-08T21:10:25;10.15;;;4.70;;
71916;SDS011;59793;46.506;6.674;2023-09-08T21:12:50;9.83;;;4.67;;
71916;SDS011;59793;46.506;6.674;2023-09-08T21:15:15;9.70;;;4.93;;
71916;SDS011;59793;46.506;6.674;2023-09-08T21:17:41;9.88;;;4.85;;